Weather reports worldwide

Advertisment
Luchon/SA, France (7724): temperature & dewpoint: 13.08.2019 00:00:00 - 19.08.2019 00:00:00 (CEST)Luchon/SA, France (7724): wind speed & gusts: 13.08.2019 00:00:00 - 19.08.2019 00:00:00 (CEST)Luchon/SA, France (7724): wind direction: 13.08.2019 00:00:00 - 19.08.2019 00:00:00 (CEST)Luchon/SA, France (7724): precipitation: 13.08.2019 00:00:00 - 19.08.2019 00:00:00 (CEST)
Date & Time tt [°C] td [°C] ff [km/h] ff [kn] fx [km/h] fx [kn] dd rr [mm]
19.08.2019 00:00:00 - - - - - - - -
18.08.2019 23:00:00 20,3 17,3 18 10 34 18 NNE 0,0
18.08.2019 22:00:00 20,9 16,9 13 7 34 18 NNE 0,0
18.08.2019 21:00:00 21,6 17,0 16 9 26 14 NNE 0,0
18.08.2019 20:00:00 22,4 16,9 13 7 34 18 N -
18.08.2019 19:00:00 22,8 17,3 16 9 42 23 N 0,0
18.08.2019 18:00:00 23,9 17,9 22 12 46 25 N 0,0
18.08.2019 17:00:00 24,8 17,5 26 14 46 25 N 0,0
18.08.2019 16:00:00 26,5 17,0 22 12 50 27 N 0,0
18.08.2019 15:00:00 28,1 17,0 26 14 55 30 N 0,0
18.08.2019 14:00:00 28,2 15,8 28 15 57 31 N -
18.08.2019 13:00:00 28,6 15,5 24 13 48 26 N 0,0
18.08.2019 12:00:00 28,2 15,1 24 13 48 26 NNE 0,0
18.08.2019 11:00:00 25,5 13,7 5 3 22 12 NNW 0,0
18.08.2019 10:00:00 21,7 14,1 4 2 16 9 NE 0,0
18.08.2019 09:00:00 16,6 14,6 4 2 11 6 ENE 0,2
18.08.2019 08:00:00 13,7 12,6 5 3 11 6 SE -
18.08.2019 07:00:00 13,7 12,4 4 2 11 6 SE 0,0
18.08.2019 06:00:00 13,3 12,0 4 2 11 6 N 0,0
18.08.2019 05:00:00 14,2 12,8 4 2 11 6 N 0,0
18.08.2019 04:00:00 15,1 13,3 2 1 8 4 NNW 0,0
18.08.2019 03:00:00 15,9 14,1 4 2 8 4 SW 0,0
18.08.2019 02:00:00 16,5 14,7 4 2 9 5 SE -
18.08.2019 01:00:00 17,5 14,9 4 2 11 6 NNW 0,0
18.08.2019 00:00:00 17,7 15,1 4 2 15 8 SE 0,0
17.08.2019 23:00:00 19,9 15,3 8 4 18 10 SE 0,0
17.08.2019 22:00:00 21,7 15,5 8 4 22 12 S 0,0
17.08.2019 21:00:00 22,7 15,8 5 3 9 5 S 0,0
17.08.2019 20:00:00 24,8 15,1 4 2 35 19 ESE -
17.08.2019 19:00:00 26,4 14,8 16 9 39 21 N 0,0
17.08.2019 18:00:00 28,2 15,5 18 10 41 22 N 0,0
17.08.2019 17:00:00 28,2 15,5 21 11 39 21 N 0,0
17.08.2019 16:00:00 28,1 15,7 21 11 42 23 N 0,0
17.08.2019 15:00:00 27,8 14,8 21 11 41 22 N 0,0
17.08.2019 14:00:00 27,3 14,7 18 10 41 22 N -
17.08.2019 13:00:00 26,8 15,2 24 13 39 21 N 0,0
17.08.2019 12:00:00 25,5 12,3 9 5 16 9 NNE 0,0
17.08.2019 11:00:00 23,0 12,6 2 1 9 5 ESE 0,0
17.08.2019 10:00:00 18,5 11,8 4 2 9 5 SE 0,0
17.08.2019 09:00:00 13,9 11,6 2 1 8 4 E 0,0
17.08.2019 08:00:00 10,4 9,6 2 1 8 4 ENE -
17.08.2019 07:00:00 10,1 8,9 4 2 9 5 S 0,0
17.08.2019 06:00:00 11,0 10,1 2 1 11 6 N 0,0
17.08.2019 05:00:00 11,1 9,8 2 1 4 2 NNW 0,0
17.08.2019 04:00:00 11,7 10,1 0 0 5 3 N 0,0
17.08.2019 03:00:00 12,2 10,3 0 0 4 2 N 0,0
17.08.2019 02:00:00 13,0 10,7 2 1 9 5 N -
17.08.2019 01:00:00 13,7 10,9 2 1 4 2 S 0,0
17.08.2019 00:00:00 15,2 10,8 0 0 8 4 N 0,0
16.08.2019 23:00:00 17,9 10,5 9 5 29 16 S 0,0
16.08.2019 22:00:00 18,9 11,0 11 6 21 11 S 0,0
16.08.2019 21:00:00 20,4 11,3 9 5 18 10 S 0,0
16.08.2019 20:00:00 22,8 11,2 4 2 15 8 WNW -
16.08.2019 19:00:00 24,9 11,1 4 2 39 21 WNW 0,0
16.08.2019 18:00:00 26,5 14,3 21 11 48 26 N 0,0
16.08.2019 17:00:00 26,6 14,4 28 15 48 26 N 0,0
16.08.2019 16:00:00 27,2 14,2 22 12 46 25 N 0,0
16.08.2019 15:00:00 26,6 15,3 24 13 44 24 N 0,0
16.08.2019 14:00:00 26,9 15,0 16 9 29 16 N -
16.08.2019 13:00:00 26,1 12,2 4 2 11 6 N 0,0
16.08.2019 12:00:00 23,3 11,7 4 2 11 6 SE 0,0
16.08.2019 11:00:00 20,4 12,4 4 2 13 7 NE 0,0
16.08.2019 10:00:00 17,8 11,4 2 1 8 4 SE 0,0
16.08.2019 09:00:00 14,9 11,3 2 1 16 9 ENE 0,0
16.08.2019 08:00:00 12,9 9,9 5 3 24 13 SSW -
16.08.2019 07:00:00 14,1 10,3 9 5 34 18 S 0,0
16.08.2019 06:00:00 15,9 11,1 8 4 21 11 SW 0,0
16.08.2019 05:00:00 15,5 12,1 8 4 16 9 SSE 0,0
16.08.2019 04:00:00 15,5 13,2 9 5 18 10 N 0,0
16.08.2019 03:00:00 16,1 12,8 8 4 15 8 S 0,0
16.08.2019 02:00:00 15,6 13,4 4 2 9 5 SE -
16.08.2019 01:00:00 15,8 13,6 2 1 9 5 N 0,0
16.08.2019 00:00:00 15,7 13,7 8 4 9 5 S 0,0
15.08.2019 23:00:00 15,4 13,8 4 2 8 4 N 0,0
15.08.2019 22:00:00 15,6 13,4 0 0 8 4 N 0,0
15.08.2019 21:00:00 17,2 13,7 2 1 8 4 S 0,0
15.08.2019 20:00:00 17,9 13,4 2 1 16 9 SSE -
15.08.2019 19:00:00 18,3 13,6 8 4 26 14 NE 0,0
15.08.2019 18:00:00 18,0 13,3 13 7 35 19 N 0,0
15.08.2019 17:00:00 18,2 13,9 18 10 29 16 NNE 0,0
15.08.2019 16:00:00 17,9 14,0 18 10 39 21 NNE 0,0
15.08.2019 15:00:00 17,8 14,1 24 13 44 24 N 0,0
15.08.2019 14:00:00 18,4 14,5 15 8 34 18 N -
15.08.2019 13:00:00 17,6 14,7 16 9 29 16 NNE 0,0
15.08.2019 12:00:00 17,5 14,4 9 5 22 12 N 0,0
15.08.2019 11:00:00 17,5 13,4 4 2 11 6 SSE 0,0
15.08.2019 10:00:00 15,2 12,5 0 0 15 8 N 0,0
15.08.2019 09:00:00 13,8 12,7 4 2 8 4 NE 0,0
15.08.2019 08:00:00 11,2 10,9 0 0 5 3 N -
15.08.2019 07:00:00 10,9 10,4 0 0 5 3 N 0,0
15.08.2019 06:00:00 11,2 10,6 0 0 4 2 N 0,0
15.08.2019 05:00:00 11,3 10,8 0 0 5 3 N 0,0
15.08.2019 04:00:00 11,6 10,7 2 1 4 2 NNE 0,0
15.08.2019 03:00:00 12,1 11,0 4 2 8 4 NNE 0,0
15.08.2019 02:00:00 13,1 11,0 2 1 9 5 NW -
15.08.2019 01:00:00 14,2 11,2 0 0 13 7 N 0,0
15.08.2019 00:00:00 14,9 11,5 2 1 16 9 SSW 0,0
14.08.2019 23:00:00 16,5 11,2 9 5 22 12 SSE 0,0
14.08.2019 22:00:00 16,5 11,8 4 2 8 4 SE 0,0
14.08.2019 21:00:00 18,6 11,2 0 0 11 6 N 0,0
14.08.2019 20:00:00 21,5 10,3 4 2 31 17 E -
14.08.2019 19:00:00 22,9 10,0 13 7 37 20 NNW 0,0
14.08.2019 18:00:00 24,4 10,3 18 10 44 24 NNW 0,0
14.08.2019 17:00:00 24,8 10,3 21 11 37 20 N 0,0
14.08.2019 16:00:00 25,1 10,5 18 10 39 21 N 0,0
14.08.2019 15:00:00 - - - - - - - -
14.08.2019 14:00:00 24,3 10,2 11 6 24 13 N -
14.08.2019 13:00:00 22,6 9,0 8 4 16 9 NNE 0,0
14.08.2019 12:00:00 20,2 8,5 5 3 13 7 NNE 0,0
14.08.2019 11:00:00 18,1 9,7 2 1 9 5 ENE 0,0
14.08.2019 10:00:00 14,3 9,3 4 2 8 4 ENE 0,0
14.08.2019 09:00:00 10,5 9,4 2 1 9 5 E 0,0
14.08.2019 08:00:00 8,3 7,9 0 0 18 10 N -
14.08.2019 07:00:00 7,9 7,8 2 1 5 3 N 0,0
14.08.2019 06:00:00 8,3 7,9 0 0 5 3 N 0,0
14.08.2019 05:00:00 9,2 8,6 2 1 11 6 N 0,0
14.08.2019 04:00:00 9,5 8,9 5 3 13 7 ESE 0,0
14.08.2019 03:00:00 10,1 9,6 0 0 5 3 N 0,0
14.08.2019 02:00:00 10,9 10,0 2 1 5 3 NNE -
14.08.2019 01:00:00 12,7 11,3 0 0 4 2 N 0,0
14.08.2019 00:00:00 14,3 11,6 0 0 8 4 N 0,0
13.08.2019 23:00:00 15,0 11,8 4 2 9 5 ESE 0,0
13.08.2019 22:00:00 15,4 11,2 5 3 9 5 S 0,0
13.08.2019 21:00:00 15,9 10,4 2 1 21 11 SE 0,0
13.08.2019 20:00:00 16,2 10,7 11 6 22 12 NNE -
13.08.2019 19:00:00 16,8 10,9 9 5 18 10 N 0,0
13.08.2019 18:00:00 17,0 10,4 11 6 29 16 N 0,0
13.08.2019 17:00:00 16,5 10,1 16 9 34 18 N 0,0
13.08.2019 16:00:00 16,5 10,3 18 10 34 18 N 0,0
13.08.2019 15:00:00 16,2 10,7 18 10 31 17 N 0,0
13.08.2019 14:00:00 16,9 9,6 16 9 35 19 N -
13.08.2019 13:00:00 17,9 9,8 18 10 31 17 N 0,0
13.08.2019 12:00:00 16,0 9,4 13 7 26 14 N 0,0
13.08.2019 11:00:00 14,8 10,0 9 5 24 13 NNE 0,0
13.08.2019 10:00:00 14,1 10,3 11 6 22 12 NNE 0,0
13.08.2019 09:00:00 13,0 10,7 9 5 15 8 NNE 0,0
13.08.2019 08:00:00 12,5 11,2 4 2 8 4 S -
13.08.2019 07:00:00 12,2 11,1 2 1 8 4 S 0,0
13.08.2019 06:00:00 12,3 11,4 0 0 5 3 N 0,0
13.08.2019 05:00:00 12,5 11,6 4 2 5 3 S 0,0
13.08.2019 04:00:00 12,6 11,5 2 1 8 4 SW 0,0
13.08.2019 03:00:00 12,8 11,7 4 2 8 4 SE 0,0
13.08.2019 02:00:00 12,9 11,6 4 2 8 4 SSE -
13.08.2019 01:00:00 13,2 11,9 0 0 5 3 N 0,0
13.08.2019 00:00:00 13,4 12,0 0 0 5 3 N 0,0

tt = temperature
td = dewpoint
ff = wind speed
fx = gusts
dd = wind direction
rr = precipitation

Next stations